Time;durP1;ratioP1;P1;durP2;ratioP2;P2;SDS_P1;SDS_P2;PMS_P1;PMS_P2;Temp;Humidity;BMP_temperature;BMP_pressure;BME280_temperature;BME280_humidity;BME280_pressure;Samples;Min_cycle;Max_cycle;Signal;HPM_P1;HPM_P2
2020/12/31 00:00:01;;;;;;;13.17;8.70;;;4.40;99.90;;;-146.47;100.00;66290.13;4889990;29;20788;-82
2020/12/31 00:02:46;;;;;;;11.97;7.73;;;4.40;99.90;;;-146.47;100.00;66290.13;4904111;29;20212;-82
2020/12/31 00:05:32;;;;;;;11.97;7.20;;;4.40;99.90;;;-146.47;100.00;66290.13;4903208;29;20239;-81
2020/12/31 00:08:17;;;;;;;12.40;7.87;;;4.40;99.90;;;-146.47;100.00;66290.13;4898931;29;20223;-81
2020/12/31 00:11:02;;;;;;;10.97;7.50;;;4.40;99.90;;;-146.47;100.00;66290.13;4897195;29;20212;-80
2020/12/31 00:13:48;;;;;;;12.77;7.50;;;4.40;99.90;;;-146.47;100.00;66290.13;4903352;29;20236;-81
2020/12/31 00:16:33;;;;;;;12.77;7.23;;;4.40;99.90;;;-146.47;100.00;66290.13;4904785;29;20346;-81
2020/12/31 00:19:18;;;;;;;10.17;6.30;;;4.40;99.90;;;-146.47;100.00;66290.13;4903580;29;20220;-80
2020/12/31 00:22:04;;;;;;;10.17;7.27;;;4.40;99.90;;;-146.47;100.00;66290.13;4897750;29;20288;-80
2020/12/31 00:24:50;;;;;;;9.73;6.07;;;4.40;99.90;;;-146.47;100.00;66290.13;4904158;29;20224;-81
2020/12/31 00:27:35;;;;;;;9.00;6.30;;;4.40;99.90;;;-146.47;100.00;66290.13;4893203;29;20200;-81
2020/12/31 00:30:21;;;;;;;8.97;5.70;;;4.40;99.90;;;-146.47;100.00;66290.13;4901590;29;20256;-81
2020/12/31 00:33:06;;;;;;;10.47;6.10;;;4.40;99.90;;;-146.47;100.00;66290.13;4894350;29;20236;-82
2020/12/31 00:35:56;;;;;;;8.83;5.83;;;4.40;99.90;;;-146.47;100.00;66290.13;4912747;29;20273;-82
2020/12/31 00:38:41;;;;;;;8.27;4.93;;;4.40;99.90;;;-146.47;100.00;66290.13;4912448;29;20293;-81
2020/12/31 00:41:27;;;;;;;10.13;5.50;;;4.40;99.90;;;-146.47;100.00;66290.13;4894470;29;20225;-82
2020/12/31 00:44:12;;;;;;;11.77;6.37;;;4.40;99.90;;;-146.47;100.00;66290.13;4902200;29;20228;-82
2020/12/31 00:46:57;;;;;;;8.13;5.33;;;4.40;99.90;;;-146.47;100.00;66290.13;4904003;29;20352;-80
2020/12/31 00:49:42;;;;;;;8.43;5.60;;;4.40;99.90;;;-146.47;100.00;66290.13;4889021;29;20762;-82
2020/12/31 00:52:27;;;;;;;7.70;6.17;;;4.40;99.90;;;-146.47;100.00;66290.13;4900403;29;20255;-80
2020/12/31 00:55:13;;;;;;;6.63;5.30;;;4.40;99.90;;;-146.47;100.00;66290.13;4898896;29;20288;-80
2020/12/31 00:57:59;;;;;;;7.57;5.30;;;4.40;99.90;;;-146.47;100.00;66290.13;4901246;29;20296;-80
2020/12/31 01:00:44;;;;;;;7.63;5.10;;;4.40;99.90;;;-146.47;100.00;66290.13;4893137;29;20340;-81
2020/12/31 01:03:29;;;;;;;7.70;5.70;;;4.40;99.90;;;-146.47;100.00;66290.13;4900443;29;20211;-81
2020/12/31 01:06:14;;;;;;;6.63;4.93;;;4.40;99.90;;;-146.47;100.00;66290.13;4901057;29;20628;-79
2020/12/31 01:09:00;;;;;;;8.97;5.77;;;4.30;99.90;;;-146.47;100.00;66290.13;4898447;29;20506;-81
2020/12/31 01:11:46;;;;;;;8.40;5.60;;;4.40;99.90;;;-146.47;100.00;66290.13;4889881;29;20288;-81
2020/12/31 01:14:31;;;;;;;8.13;5.97;;;4.30;99.90;;;-146.47;100.00;66290.13;4902636;29;20352;-83
2020/12/31 01:17:16;;;;;;;9.17;5.50;;;4.30;99.90;;;-146.47;100.00;66290.13;4885217;29;20764;-81
2020/12/31 01:20:03;;;;;;;9.90;6.47;;;4.30;99.90;;;-146.47;100.00;66290.13;4898417;29;20270;-81
2020/12/31 01:22:48;;;;;;;8.33;5.97;;;4.30;99.90;;;-146.47;100.00;66290.13;4886302;29;20232;-81
2020/12/31 01:25:34;;;;;;;8.70;6.30;;;4.30;99.90;;;-146.47;100.00;66290.13;4895023;29;20236;-80
2020/12/31 01:28:19;;;;;;;9.47;6.73;;;4.30;99.90;;;-146.47;100.00;66290.13;4901944;29;20638;-81
2020/12/31 01:31:08;;;;;;;10.77;6.20;;;4.30;99.90;;;-146.47;100.00;66290.13;4890877;29;20286;-81
2020/12/31 01:33:53;;;;;;;10.00;7.47;;;4.30;99.90;;;-146.47;100.00;66290.13;4890436;29;20284;-80
2020/12/31 01:36:38;;;;;;;9.13;7.07;;;4.30;99.90;;;-146.47;100.00;66290.13;4902326;29;20217;-82
2020/12/31 01:39:23;;;;;;;11.73;7.13;;;4.20;99.90;;;-146.47;100.00;66290.13;4903172;29;20297;-81
2020/12/31 01:42:09;;;;;;;9.13;6.43;;;4.30;99.90;;;-146.47;100.00;66290.13;4889600;29;20304;-80
2020/12/31 01:44:54;;;;;;;14.10;9.70;;;4.20;99.90;;;-146.47;100.00;66290.13;4897762;29;20248;-82
2020/12/31 01:47:41;;;;;;;10.50;7.53;;;4.20;99.90;;;-146.47;100.00;66290.13;4902495;29;20233;-80
2020/12/31 01:50:26;;;;;;;12.30;8.30;;;4.20;99.90;;;-146.47;100.00;66290.13;4893650;29;20238;-81
2020/12/31 01:53:12;;;;;;;13.77;8.90;;;4.20;99.90;;;-146.47;100.00;66290.13;4906418;29;20630;-82
2020/12/31 01:56:04;;;;;;;11.53;8.03;;;4.20;99.90;;;-146.47;100.00;66290.13;4896142;29;20212;-82
2020/12/31 01:58:49;;;;;;;12.50;8.87;;;4.20;99.90;;;-146.47;100.00;66290.13;4903429;29;20291;-81
2020/12/31 02:01:36;;;;;;;13.23;8.03;;;4.20;99.90;;;-146.47;100.00;66290.13;4899905;29;20223;-82
2020/12/31 02:04:22;;;;;;;12.77;7.90;;;4.20;99.90;;;-146.47;100.00;66290.13;4898119;29;20370;-81
2020/12/31 02:07:07;;;;;;;13.00;9.67;;;4.20;99.90;;;-146.47;100.00;66290.13;4898920;29;20212;-81
2020/12/31 02:09:53;;;;;;;14.00;10.37;;;4.20;99.90;;;-146.47;100.00;66290.13;4894452;29;20220;-82
2020/12/31 02:12:38;;;;;;;13.23;9.80;;;4.20;99.90;;;-146.47;100.00;66290.13;4902091;29;20224;-80
2020/12/31 02:15:23;;;;;;;16.83;10.50;;;4.20;99.90;;;-146.47;100.00;66290.13;4903027;29;20239;-81
2020/12/31 02:18:10;;;;;;;13.90;9.83;;;4.20;99.90;;;-146.47;100.00;66290.13;4898830;29;20296;-82
2020/12/31 02:20:56;;;;;;;15.60;9.83;;;4.20;99.90;;;-146.47;100.00;66290.13;4897283;29;20281;-83
2020/12/31 02:23:43;;;;;;;15.30;9.63;;;4.20;99.90;;;-146.47;100.00;66290.13;4900127;29;20260;-81
2020/12/31 02:26:31;;;;;;;13.67;9.20;;;4.20;99.90;;;-146.47;100.00;66290.13;4889739;29;20268;-80
2020/12/31 02:29:18;;;;;;;12.93;9.67;;;4.20;99.90;;;-146.47;100.00;66290.13;4910284;29;20273;-81
2020/12/31 02:32:03;;;;;;;13.70;9.63;;;4.20;99.90;;;-146.47;100.00;66290.13;4905464;29;20215;-82
2020/12/31 02:34:48;;;;;;;14.27;10.40;;;4.20;99.90;;;-146.47;100.00;66290.13;4902572;29;20237;-81
2020/12/31 02:37:33;;;;;;;13.63;9.90;;;4.20;99.90;;;-146.47;100.00;66290.13;4915495;29;20284;-79
2020/12/31 02:40:19;;;;;;;13.13;8.53;;;4.20;99.90;;;-146.47;100.00;66290.13;4896026;29;20271;-82
2020/12/31 02:43:04;;;;;;;13.63;9.43;;;4.20;99.90;;;-146.47;100.00;66290.13;4889056;29;20216;-79
2020/12/31 02:45:50;;;;;;;11.43;8.40;;;4.20;99.90;;;-146.47;100.00;66290.13;4902702;29;20289;-82
2020/12/31 02:48:35;;;;;;;12.30;8.57;;;4.20;99.90;;;-146.47;100.00;66290.13;4892865;29;20224;-81
2020/12/31 02:51:21;;;;;;;12.13;8.67;;;4.20;99.90;;;-146.47;100.00;66290.13;4906239;29;20237;-80
2020/12/31 02:54:06;;;;;;;13.00;8.70;;;4.20;99.90;;;-146.47;100.00;66290.13;4923108;29;20204;-80
2020/12/31 02:56:52;;;;;;;11.83;8.43;;;4.20;99.90;;;-146.47;100.00;66290.13;4924053;28;20211;-80
2020/12/31 02:59:38;;;;;;;10.07;6.20;;;4.10;99.90;;;-146.47;100.00;66290.13;4908928;29;20212;-80
2020/12/31 03:02:23;;;;;;;12.77;8.10;;;4.10;99.90;;;-146.47;100.00;66290.13;4911635;29;20184;-79
2020/12/31 03:05:08;;;;;;;12.90;8.60;;;4.10;99.90;;;-146.47;100.00;66290.13;4904400;29;20236;-79
2020/12/31 03:07:53;;;;;;;10.23;7.70;;;4.10;99.90;;;-146.47;100.00;66290.13;4903857;29;20220;-79
2020/12/31 03:10:39;;;;;;;11.00;8.13;;;4.10;99.90;;;-146.47;100.00;66290.13;4887335;29;20287;-79
2020/12/31 03:13:27;;;;;;;11.07;7.63;;;4.10;99.90;;;-146.47;100.00;66290.13;4902223;29;20211;-80
2020/12/31 03:16:12;;;;;;;10.77;7.93;;;4.10;99.90;;;-146.47;100.00;66290.13;4904105;29;20273;-80
2020/12/31 03:18:57;;;;;;;7.97;4.53;;;4.00;99.90;;;-146.47;100.00;66290.13;4890871;29;20200;-81
2020/12/31 03:21:42;;;;;;;8.83;6.40;;;4.00;99.90;;;-146.47;100.00;66290.13;4902441;29;20215;-80
2020/12/31 03:24:27;;;;;;;10.37;7.00;;;4.00;99.90;;;-146.47;100.00;66290.13;4892871;29;20235;-80
2020/12/31 03:27:12;;;;;;;12.37;7.30;;;4.00;99.90;;;-146.47;100.00;66290.13;4902814;29;20216;-79
2020/12/31 03:29:59;;;;;;;7.70;5.83;;;4.00;99.90;;;-146.47;100.00;66290.13;4904342;29;20220;-79
2020/12/31 03:32:44;;;;;;;7.70;5.83;;;4.00;99.90;;;-146.47;100.00;66290.13;4909461;29;21000;-80
2020/12/31 03:35:29;;;;;;;9.13;6.93;;;4.00;99.90;;;-146.47;100.00;66290.13;4907600;29;20225;-80
2020/12/31 03:38:17;;;;;;;10.50;6.97;;;4.00;99.90;;;-146.47;100.00;66290.13;4910085;29;20222;-79
2020/12/31 03:41:02;;;;;;;8.27;6.33;;;4.00;99.90;;;-146.47;100.00;66290.13;4900488;29;20219;-80
2020/12/31 03:43:47;;;;;;;9.67;6.40;;;4.00;99.90;;;-146.47;100.00;66290.13;4901215;29;20232;-79
2020/12/31 03:46:33;;;;;;;10.50;6.77;;;4.00;99.90;;;-146.47;100.00;66290.13;4910591;29;20216;-81
2020/12/31 03:49:18;;;;;;;9.13;6.80;;;3.90;99.90;;;-146.47;100.00;66290.13;4911832;29;20263;-79
2020/12/31 03:52:04;;;;;;;9.10;6.00;;;3.90;99.90;;;-146.47;100.00;66290.13;4901132;29;20226;-80
2020/12/31 03:54:49;;;;;;;10.87;6.90;;;3.90;99.90;;;-146.47;100.00;66290.13;4910702;29;20236;-81
2020/12/31 03:57:34;;;;;;;8.23;5.47;;;3.80;99.90;;;-146.47;100.00;66290.13;4912260;29;20304;-80
2020/12/31 04:00:19;;;;;;;8.30;5.77;;;4.00;99.90;;;-146.47;100.00;66290.13;4899488;29;20204;-81
2020/12/31 04:03:05;;;;;;;11.80;6.40;;;3.90;99.90;;;-146.47;100.00;66290.13;4903517;29;20264;-81
2020/12/31 04:05:51;;;;;;;11.07;6.60;;;3.90;99.90;;;-146.47;100.00;66290.13;4903321;29;20372;-80
2020/12/31 04:08:36;;;;;;;11.37;6.63;;;3.90;99.90;;;-146.47;100.00;66290.13;4901130;29;20314;-81
2020/12/31 04:11:21;;;;;;;7.73;5.13;;;3.90;99.90;;;-146.47;100.00;66290.13;4897421;29;20211;-80
2020/12/31 04:14:07;;;;;;;10.37;6.40;;;3.90;99.90;;;-146.47;100.00;66290.13;4893350;29;20235;-81
2020/12/31 04:16:52;;;;;;;11.30;7.00;;;3.90;99.90;;;-146.47;100.00;66290.13;4903021;29;20243;-80
2020/12/31 04:19:40;;;;;;;10.30;6.77;;;3.90;99.90;;;-146.47;100.00;66290.13;4907351;29;20208;-80
2020/12/31 04:22:25;;;;;;;12.33;6.97;;;3.90;99.90;;;-146.47;100.00;66290.13;4903925;29;20204;-82
2020/12/31 04:25:10;;;;;;;11.67;7.07;;;3.80;99.90;;;-146.47;100.00;66290.13;4903891;29;20252;-81
2020/12/31 04:27:55;;;;;;;9.87;7.17;;;3.80;99.90;;;-146.47;100.00;66290.13;4904304;29;20229;-80
2020/12/31 04:30:41;;;;;;;11.67;7.40;;;3.80;99.90;;;-146.47;100.00;66290.13;4904471;29;20240;-80
2020/12/31 04:33:26;;;;;;;10.80;7.63;;;3.80;99.90;;;-146.47;100.00;66290.13;4904620;29;20263;-80
2020/12/31 04:36:12;;;;;;;9.70;6.60;;;3.80;99.90;;;-146.47;100.00;66290.13;4901983;29;20208;-81
2020/12/31 04:38:58;;;;;;;12.07;7.63;;;3.80;99.90;;;-146.47;100.00;66290.13;4904015;29;20260;-80
2020/12/31 04:41:43;;;;;;;12.37;7.13;;;3.80;99.90;;;-146.47;100.00;66290.13;4902737;29;20289;-80
2020/12/31 04:44:29;;;;;;;10.07;7.03;;;3.80;99.90;;;-146.47;100.00;66290.13;4891329;29;20228;-80
2020/12/31 04:47:20;;;;;;;10.90;8.00;;;3.80;99.90;;;-146.47;100.00;66290.13;4903219;29;20259;-80
2020/12/31 04:50:07;;;;;;;8.73;6.53;;;3.80;99.90;;;-146.47;100.00;66290.13;4891927;29;20627;-81
2020/12/31 04:52:53;;;;;;;14.63;7.40;;;3.80;99.90;;;-146.47;100.00;66290.13;4900758;29;20220;-79
2020/12/31 04:55:43;;;;;;;10.67;6.90;;;3.80;99.90;;;-146.47;100.00;66290.13;4905614;29;20243;-79
2020/12/31 04:58:28;;;;;;;10.13;6.77;;;3.80;99.90;;;-146.47;100.00;66290.13;4891194;29;20813;-81
2020/12/31 05:01:15;;;;;;;10.47;7.23;;;3.80;99.90;;;-146.47;100.00;66290.13;4904320;29;20751;-81
2020/12/31 05:04:01;;;;;;;10.47;6.53;;;3.80;99.90;;;-146.47;100.00;66290.13;4900462;29;20251;-79
2020/12/31 05:06:47;;;;;;;8.90;6.63;;;3.80;99.90;;;-146.47;100.00;66290.13;4900730;29;20555;-81
2020/12/31 05:09:33;;;;;;;9.77;6.03;;;3.90;99.90;;;-146.47;100.00;66290.13;4895389;29;20267;-79
2020/12/31 05:12:29;;;;;;;11.50;7.07;;;3.80;99.90;;;-146.47;100.00;66290.13;4895835;29;20212;-81
2020/12/31 05:15:14;;;;;;;8.30;5.77;;;3.80;99.90;;;-146.47;100.00;66290.13;4897385;29;20228;-81
2020/12/31 05:18:16;;;;;;;10.27;6.13;;;3.90;99.90;;;-146.47;100.00;66290.13;4897741;29;20782;-80
2020/12/31 05:21:01;;;;;;;8.87;6.60;;;3.90;99.90;;;-146.47;100.00;66290.13;4893763;29;20199;-79
2020/12/31 05:23:46;;;;;;;10.37;6.37;;;3.90;99.90;;;-146.47;100.00;66290.13;4895578;29;20219;-79
2020/12/31 05:26:32;;;;;;;10.17;6.20;;;4.00;99.90;;;-146.47;100.00;66290.13;4896496;29;20663;-80
2020/12/31 05:29:24;;;;;;;8.70;6.87;;;3.80;99.90;;;-146.47;100.00;66290.13;4889747;29;20221;-79
2020/12/31 05:32:09;;;;;;;11.03;6.13;;;3.80;99.90;;;-146.47;100.00;66290.13;4888257;29;20285;-80
2020/12/31 05:34:56;;;;;;;8.43;5.30;;;3.80;99.90;;;-146.47;100.00;66290.13;4896238;29;20734;-81
2020/12/31 05:37:41;;;;;;;10.97;6.57;;;3.80;99.90;;;-146.47;100.00;66290.13;4899496;29;20212;-80
2020/12/31 05:40:26;;;;;;;9.70;6.03;;;3.80;99.90;;;-146.47;100.00;66290.13;4891840;29;20257;-81
2020/12/31 05:43:20;;;;;;;10.30;6.50;;;3.90;99.90;;;-146.47;100.00;66290.13;4891707;29;20334;-80
2020/12/31 05:46:07;;;;;;;9.00;6.40;;;3.80;99.90;;;-146.47;100.00;66290.13;4896686;29;20249;-80
2020/12/31 05:48:57;;;;;;;10.27;6.20;;;3.80;99.90;;;-146.47;100.00;66290.13;4895652;29;20225;-80
2020/12/31 05:51:42;;;;;;;10.20;7.00;;;3.90;99.90;;;-146.47;100.00;66290.13;4896792;29;20241;-81
2020/12/31 05:54:29;;;;;;;9.97;7.57;;;3.80;99.90;;;-146.47;100.00;66290.13;4885552;29;20232;-80
2020/12/31 05:57:24;;;;;;;11.10;7.07;;;3.80;99.90;;;-146.47;100.00;66290.13;4899283;29;20284;-81
2020/12/31 06:00:13;;;;;;;9.70;7.07;;;3.80;99.90;;;-146.47;100.00;66290.13;4889717;29;20213;-82
2020/12/31 06:03:00;;;;;;;12.03;6.77;;;3.80;99.90;;;-146.47;100.00;66290.13;4893681;29;20288;-82
2020/12/31 06:06:04;;;;;;;11.70;6.57;;;3.80;99.90;;;-146.47;100.00;66290.13;4901812;29;20739;-81
2020/12/31 06:09:03;;;;;;;8.73;6.10;;;3.80;99.90;;;-146.47;100.00;66290.13;4896391;29;20714;-82
2020/12/31 06:11:57;;;;;;;8.63;5.73;;;3.80;99.90;;;-146.47;100.00;66290.13;4899008;29;20257;-81
2020/12/31 06:14:54;;;;;;;8.03;5.97;;;3.80;99.90;;;-146.47;100.00;66290.13;4888799;29;20270;-80
2020/12/31 06:17:46;;;;;;;10.40;6.27;;;3.80;99.90;;;-146.47;100.00;66290.13;4890937;29;20230;-81
2020/12/31 06:20:34;;;;;;;7.53;5.40;;;3.80;99.90;;;-146.47;100.00;66290.13;4896410;29;20265;-80
2020/12/31 06:23:37;;;;;;;7.33;4.87;;;3.80;99.90;;;-146.47;100.00;66290.13;4895428;29;20230;-82
2020/12/31 06:26:39;;;;;;;7.80;5.40;;;3.80;99.90;;;-146.47;100.00;66290.13;4899308;29;20255;-81
2020/12/31 06:29:24;;;;;;;5.50;5.00;;;3.80;99.90;;;-146.47;100.00;66290.13;4902034;29;20208;-81
2020/12/31 06:32:27;;;;;;;8.47;5.20;;;3.70;99.90;;;-146.47;100.00;66290.13;4894204;29;20216;-80
2020/12/31 06:35:18;;;;;;;7.20;4.80;;;3.60;99.90;;;-146.47;100.00;66290.13;4897910;29;20232;-81
2020/12/31 06:38:03;;;;;;;11.00;4.87;;;3.70;99.90;;;-146.47;100.00;66290.13;4899882;29;20209;-79
2020/12/31 06:40:48;;;;;;;6.37;4.77;;;3.70;99.90;;;-146.47;100.00;66290.13;4895428;29;20204;-80
2020/12/31 06:43:38;;;;;;;5.63;3.53;;;3.70;99.90;;;-146.47;100.00;66290.13;4898616;29;20232;-82
2020/12/31 06:46:23;;;;;;;6.57;4.53;;;3.70;99.90;;;-146.47;100.00;66290.13;4892166;29;20219;-81
2020/12/31 06:49:10;;;;;;;5.17;3.93;;;3.70;99.90;;;-146.47;100.00;66290.13;4902417;29;20298;-80
2020/12/31 06:51:55;;;;;;;5.07;3.80;;;3.70;99.90;;;-146.47;100.00;66290.13;4898048;29;20718;-79
2020/12/31 06:54:40;;;;;;;4.97;3.80;;;3.60;99.90;;;-146.47;100.00;66290.13;4900336;29;20372;-82
2020/12/31 06:57:38;;;;;;;7.00;4.13;;;3.60;99.90;;;-146.47;100.00;66290.13;4896764;29;20208;-80
2020/12/31 07:00:30;;;;;;;6.47;3.70;;;3.60;99.90;;;-146.47;100.00;66290.13;4895377;29;20870;-81
2020/12/31 07:03:15;;;;;;;5.87;3.43;;;3.60;99.90;;;-146.47;100.00;66290.13;4895752;29;20207;-81
2020/12/31 07:06:25;;;;;;;6.50;3.60;;;3.60;99.90;;;-146.47;100.00;66290.13;4902914;29;20244;-81
2020/12/31 07:09:31;;;;;;;4.10;3.30;;;3.60;99.90;;;-146.47;100.00;66290.13;4897661;29;20225;-82
2020/12/31 07:12:34;;;;;;;3.90;2.93;;;3.60;99.90;;;-146.47;100.00;66290.13;4894719;29;20612;-82
2020/12/31 07:15:19;;;;;;;5.60;3.30;;;3.50;99.90;;;-146.47;100.00;66290.13;4915474;29;20315;-81
2020/12/31 07:18:04;;;;;;;5.60;3.20;;;3.50;99.90;;;-146.47;100.00;66290.13;4889550;29;20248;-82
2020/12/31 07:20:49;;;;;;;4.97;3.37;;;3.50;99.90;;;-146.47;100.00;66290.13;4894377;29;20204;-81
2020/12/31 07:23:37;;;;;;;5.93;3.30;;;3.50;99.90;;;-146.47;100.00;66290.13;4904810;29;20706;-82
2020/12/31 07:26:27;;;;;;;4.43;3.57;;;3.40;99.90;;;-146.47;100.00;66290.13;4897793;29;20229;-81
2020/12/31 07:29:12;;;;;;;4.23;3.37;;;3.50;99.90;;;-146.47;100.00;66290.13;4894177;29;20223;-82
2020/12/31 07:31:58;;;;;;;5.50;3.47;;;3.40;99.90;;;-146.47;100.00;66290.13;4903224;29;20216;-81
2020/12/31 07:34:43;;;;;;;5.03;3.10;;;3.40;99.90;;;-146.47;100.00;66290.13;4900530;29;20231;-81
2020/12/31 07:37:28;;;;;;;5.90;3.07;;;3.50;99.90;;;-146.47;100.00;66290.13;4902159;29;20204;-81
2020/12/31 07:40:34;;;;;;;3.70;3.33;;;3.40;99.90;;;-146.47;100.00;66290.13;4904127;29;20232;-81
2020/12/31 07:43:23;;;;;;;5.00;3.33;;;3.40;99.90;;;-146.47;100.00;66290.13;4902483;29;20289;-82
2020/12/31 07:46:08;;;;;;;4.63;3.23;;;3.40;99.90;;;-146.47;100.00;66290.13;4898249;29;20208;-81
2020/12/31 07:48:53;;;;;;;3.73;3.27;;;3.40;99.90;;;-146.47;100.00;66290.13;4895830;29;20739;-82
2020/12/31 07:51:45;;;;;;;6.07;3.50;;;3.40;99.90;;;-146.47;100.00;66290.13;4904291;29;20260;-82
2020/12/31 07:54:30;;;;;;;4.67;2.83;;;3.50;99.90;;;-146.47;100.00;66290.13;4897452;29;20248;-81
2020/12/31 07:57:16;;;;;;;5.33;3.93;;;3.40;99.90;;;-146.47;100.00;66290.13;4886206;29;20217;-82
2020/12/31 08:00:02;;;;;;;5.47;3.70;;;3.50;99.90;;;-146.47;100.00;66290.13;4904456;29;20852;-82
2020/12/31 08:02:51;;;;;;;5.70;3.77;;;3.50;99.90;;;-146.47;100.00;66290.13;4902992;29;20212;-81
2020/12/31 08:05:37;;;;;;;4.97;3.50;;;3.50;99.90;;;-146.47;100.00;66290.13;4895303;29;20309;-81
2020/12/31 08:08:22;;;;;;;8.10;3.37;;;3.50;99.90;;;-146.47;100.00;66290.13;4899789;29;20204;-81
2020/12/31 08:11:09;;;;;;;4.87;3.20;;;3.50;99.90;;;-146.47;100.00;66290.13;4897539;29;20261;-83
2020/12/31 08:14:02;;;;;;;5.60;3.10;;;3.50;99.90;;;-146.47;100.00;66290.13;4891378;29;20236;-82
2020/12/31 08:17:00;;;;;;;7.87;4.17;;;3.60;99.90;;;-146.47;100.00;66290.13;4906642;29;20208;-82
2020/12/31 08:19:45;;;;;;;6.43;4.07;;;3.60;99.90;;;-146.47;100.00;66290.13;4900555;29;20275;-82
2020/12/31 08:22:40;;;;;;;7.80;4.50;;;3.50;99.90;;;-146.47;100.00;66290.13;4897122;29;20229;-83
2020/12/31 08:25:31;;;;;;;6.00;4.10;;;3.60;99.90;;;-146.47;100.00;66290.13;4906246;29;20761;-82
2020/12/31 08:28:20;;;;;;;6.73;4.83;;;3.50;99.90;;;-146.47;100.00;66290.13;4895520;29;20258;-81
2020/12/31 08:31:10;;;;;;;7.47;5.33;;;3.50;99.90;;;-146.47;100.00;66290.13;4902857;29;20349;-82
2020/12/31 08:34:01;;;;;;;8.10;5.23;;;3.60;99.90;;;-146.47;100.00;66290.13;4897973;29;20231;-82
2020/12/31 08:36:51;;;;;;;9.53;5.57;;;3.60;99.90;;;-146.47;100.00;66290.13;4903938;29;20740;-82
2020/12/31 08:39:36;;;;;;;9.40;6.00;;;3.60;99.90;;;-146.47;100.00;66290.13;4905680;29;20703;-81
2020/12/31 08:42:24;;;;;;;9.37;5.83;;;3.60;99.90;;;-146.47;100.00;66290.13;4901421;29;20209;-82
2020/12/31 08:45:10;;;;;;;9.60;6.03;;;3.60;99.90;;;-146.47;100.00;66290.13;4908479;29;20236;-82
2020/12/31 08:48:17;;;;;;;12.10;5.83;;;3.60;99.90;;;-146.47;100.00;66290.13;4908519;29;20212;-81
2020/12/31 08:51:09;;;;;;;7.97;5.67;;;3.60;99.90;;;-146.47;100.00;66290.13;4906340;29;20239;-82
2020/12/31 08:53:57;;;;;;;8.80;5.90;;;3.60;99.90;;;-146.47;100.00;66290.13;4898427;29;20257;-81
2020/12/31 08:56:42;;;;;;;9.37;6.50;;;3.60;99.90;;;-146.47;100.00;66290.13;4892570;29;20723;-81
2020/12/31 08:59:32;;;;;;;9.87;6.30;;;3.60;99.90;;;-146.47;100.00;66290.13;4900100;29;20297;-81
2020/12/31 09:02:18;;;;;;;9.07;5.67;;;3.60;99.90;;;-146.47;100.00;66290.13;4894349;29;20616;-81
2020/12/31 09:05:17;;;;;;;11.90;7.27;;;3.60;99.90;;;-146.47;100.00;66290.13;4902060;29;20341;-82
2020/12/31 09:08:06;;;;;;;9.63;6.67;;;3.60;99.90;;;-146.47;100.00;66290.13;4909533;29;20195;-82
2020/12/31 09:11:03;;;;;;;9.63;7.17;;;3.60;99.90;;;-146.47;100.00;66290.13;4923524;29;20284;-81
2020/12/31 09:13:48;;;;;;;7.87;6.23;;;3.70;99.90;;;-146.47;100.00;66290.13;4916889;29;20265;-81
2020/12/31 09:16:34;;;;;;;8.17;5.37;;;3.70;99.90;;;-146.47;100.00;66290.13;4918068;29;20204;-81
2020/12/31 09:19:19;;;;;;;8.43;5.57;;;3.70;99.90;;;-146.47;100.00;66290.13;4901809;29;20233;-80
2020/12/31 09:22:13;;;;;;;7.27;5.23;;;3.70;99.90;;;-146.47;100.00;66290.13;4902025;29;20235;-80
2020/12/31 09:25:09;;;;;;;9.93;5.27;;;3.80;99.90;;;-146.47;100.00;66290.13;4888736;29;20293;-80
2020/12/31 09:27:55;;;;;;;8.53;5.70;;;3.80;99.90;;;-146.47;100.00;66290.13;4893502;29;20216;-80
2020/12/31 09:30:40;;;;;;;8.17;5.30;;;3.80;99.90;;;-146.47;100.00;66290.13;4890678;29;20244;-81
2020/12/31 09:33:25;;;;;;;7.70;5.33;;;3.90;99.90;;;-146.47;100.00;66290.13;4901294;29;20207;-80
2020/12/31 09:36:10;;;;;;;5.07;4.17;;;3.90;99.90;;;-146.47;100.00;66290.13;4906318;29;20208;-80
2020/12/31 09:38:56;;;;;;;6.57;4.70;;;3.90;99.90;;;-146.47;100.00;66290.13;4891577;29;20215;-81
2020/12/31 09:41:42;;;;;;;6.43;4.10;;;3.90;99.90;;;-146.47;100.00;66290.13;4902699;29;20273;-80
2020/12/31 09:44:27;;;;;;;6.77;4.50;;;4.00;99.90;;;-146.47;100.00;66290.13;4901577;29;20288;-81
2020/12/31 09:47:12;;;;;;;5.93;3.90;;;4.00;99.90;;;-146.47;100.00;66290.13;4903294;29;20207;-81
2020/12/31 09:49:57;;;;;;;6.83;4.30;;;4.00;99.90;;;-146.47;100.00;66290.13;4889778;29;20216;-81
2020/12/31 09:52:42;;;;;;;6.00;4.13;;;4.10;99.90;;;-146.47;100.00;66290.13;4890889;29;20225;-81
2020/12/31 09:55:28;;;;;;;5.63;4.60;;;4.10;99.90;;;-146.47;100.00;66290.13;4901683;29;20293;-81
2020/12/31 09:58:14;;;;;;;5.90;4.27;;;4.10;99.90;;;-146.47;100.00;66290.13;4905294;29;20585;-82
2020/12/31 10:01:01;;;;;;;8.37;4.50;;;4.10;99.90;;;-146.47;100.00;66290.13;4901835;29;20215;-80
2020/12/31 10:03:46;;;;;;;6.30;4.50;;;4.20;99.90;;;-146.47;100.00;66290.13;4906199;29;20246;-81
2020/12/31 10:06:31;;;;;;;8.80;4.87;;;4.20;99.90;;;-146.47;100.00;66290.13;4906292;29;20204;-82
2020/12/31 10:09:17;;;;;;;7.13;4.17;;;4.30;99.90;;;-146.47;100.00;66290.13;4905383;29;20313;-81
2020/12/31 10:12:03;;;;;;;5.27;3.63;;;4.30;99.90;;;-146.47;100.00;66290.13;4893255;29;20265;-81
2020/12/31 10:14:49;;;;;;;7.43;4.80;;;4.30;99.90;;;-146.47;100.00;66290.13;4906876;29;20291;-82
2020/12/31 10:17:34;;;;;;;6.10;3.90;;;4.40;99.90;;;-146.47;100.00;66290.13;4891201;29;20225;-82
2020/12/31 10:20:20;;;;;;;6.20;3.93;;;4.40;99.90;;;-146.47;100.00;66290.13;4904181;29;20208;-81
2020/12/31 10:23:05;;;;;;;5.87;4.07;;;4.40;99.90;;;-146.47;100.00;66290.13;4906694;29;20212;-82
2020/12/31 10:25:51;;;;;;;6.70;4.40;;;4.40;99.90;;;-146.47;100.00;66290.13;4896804;29;20288;-82
2020/12/31 10:28:36;;;;;;;6.33;4.53;;;4.50;99.90;;;-146.47;100.00;66290.13;4907519;29;20250;-81
2020/12/31 10:31:22;;;;;;;7.37;4.67;;;4.50;99.90;;;-146.47;100.00;66290.13;4908775;29;20212;-81
2020/12/31 10:34:08;;;;;;;5.90;4.43;;;4.60;99.90;;;-146.47;100.00;66290.13;4906260;29;20304;-81
2020/12/31 10:36:57;;;;;;;8.53;5.40;;;4.60;99.90;;;-146.47;100.00;66290.13;4908009;29;20204;-81
2020/12/31 10:39:42;;;;;;;6.87;5.07;;;4.70;99.90;;;-146.47;100.00;66290.13;4907878;29;20204;-81
2020/12/31 10:42:27;;;;;;;6.53;4.60;;;4.70;99.90;;;-146.47;100.00;66290.13;4908771;29;20215;-81
2020/12/31 10:45:13;;;;;;;7.57;5.53;;;4.70;99.90;;;-146.47;100.00;66290.13;4907369;29;20284;-82
2020/12/31 10:47:59;;;;;;;8.20;5.30;;;4.80;99.90;;;-146.47;100.00;66290.13;4906841;29;20226;-83
2020/12/31 10:50:44;;;;;;;7.67;5.50;;;4.80;99.90;;;-146.47;100.00;66290.13;4907927;29;20219;-83
2020/12/31 10:53:29;;;;;;;9.27;5.97;;;4.90;99.90;;;-146.47;100.00;66290.13;4895158;29;20754;-82
2020/12/31 10:56:19;;;;;;;8.00;5.50;;;4.90;99.90;;;-146.47;100.00;66290.13;4906221;29;20207;-82
2020/12/31 10:59:04;;;;;;;8.20;5.47;;;5.00;99.90;;;-146.47;100.00;66290.13;4905939;29;20686;-81
2020/12/31 11:01:51;;;;;;;7.03;5.43;;;5.10;99.90;;;-146.47;100.00;66290.13;4900512;29;20203;-82
2020/12/31 11:04:38;;;;;;;9.27;5.73;;;5.20;99.90;;;-146.47;100.00;66290.13;4908128;29;20266;-82
2020/12/31 11:07:23;;;;;;;7.40;4.90;;;5.30;99.90;;;-146.47;100.00;66290.13;4917144;29;20219;-82
2020/12/31 11:10:08;;;;;;;7.73;5.73;;;5.40;99.90;;;-146.47;100.00;66290.13;4907680;29;20251;-82
2020/12/31 11:12:53;;;;;;;8.53;5.67;;;5.50;99.90;;;-146.47;100.00;66290.13;4904281;29;20217;-82
2020/12/31 11:15:39;;;;;;;8.17;4.80;;;5.60;99.90;;;-146.47;100.00;66290.13;4896742;29;20232;-82
2020/12/31 11:18:24;;;;;;;6.53;5.20;;;5.70;99.90;;;-146.47;100.00;66290.13;4897843;29;20216;-81
2020/12/31 11:21:13;;;;;;;6.50;5.23;;;5.80;99.90;;;-146.47;100.00;66290.13;4904558;29;20207;-81
2020/12/31 11:24:00;;;;;;;5.83;4.90;;;5.80;99.90;;;-146.47;100.00;66290.13;4907020;29;20240;-82